Time;durP1;ratioP1;P1;durP2;ratioP2;P2;SDS_P1;SDS_P2;PMS_P1;PMS_P2;Temp;Humidity;BMP_temperature;BMP_pressure;BME280_temperature;BME280_humidity;BME280_pressure;Samples;Min_cycle;Max_cycle;Signal;HPM_P1;HPM_P2
2022/07/30 04:06:59;;;;;;;5.40;4.27;;;16.80;99.90;;;;;;4955284;29;20932;-64
2022/07/30 04:09:25;;;;;;;5.23;4.70;;;16.80;99.90;;;;;;4968433;28;20406;-65
2022/07/30 04:11:50;;;;;;;5.50;4.50;;;16.80;99.90;;;;;;4963561;28;20182;-66
2022/07/30 04:14:16;;;;;;;4.83;4.33;;;16.70;99.90;;;;;;4956304;29;20204;-66
2022/07/30 04:16:58;;;;;;;6.93;5.20;;;16.80;99.90;;;;;;4956584;29;20252;-65
2022/07/30 04:19:32;;;;;;;4.63;4.23;;;16.80;99.90;;;;;;4956607;29;20460;-66
2022/07/30 04:22:01;;;;;;;5.63;5.23;;;16.80;99.90;;;;;;4956102;29;20478;-66
2022/07/30 04:24:29;;;;;;;5.03;4.50;;;16.80;99.90;;;;;;4955505;29;20445;-65
2022/07/30 04:26:57;;;;;;;4.90;4.50;;;16.90;99.90;;;;;;4956178;29;20483;-65
2022/07/30 04:29:22;;;;;;;4.43;4.03;;;16.90;99.90;;;;;;4956369;29;20920;-65
2022/07/30 04:31:48;;;;;;;4.63;4.23;;;17.00;99.90;;;;;;4956674;29;20417;-66
2022/07/30 04:34:14;;;;;;;4.63;3.83;;;17.00;99.90;;;;;;4954744;29;20201;-66
2022/07/30 04:36:41;;;;;;;5.77;4.47;;;17.10;99.90;;;;;;4956247;29;20225;-65
2022/07/30 04:39:06;;;;;;;4.50;4.10;;;17.10;99.90;;;;;;4955839;29;20436;-66
2022/07/30 04:41:33;;;;;;;5.47;4.97;;;17.30;99.90;;;;;;4956431;29;20861;-66
2022/07/30 04:43:58;;;;;;;13.17;4.87;;;17.40;99.90;;;;;;4955896;29;20217;-65
2022/07/30 04:46:24;;;;;;;4.87;4.47;;;17.60;99.90;;;;;;4955797;29;20772;-65
2022/07/30 04:48:49;;;;;;;6.30;5.70;;;17.80;99.90;;;;;;4955687;29;20608;-65
2022/07/30 04:51:36;;;;;;;6.23;5.63;;;17.90;99.90;;;;;;4955766;29;20179;-66
2022/07/30 04:54:03;;;;;;;5.47;5.07;;;18.10;99.90;;;;;;4955786;29;20650;-65
2022/07/30 04:56:32;;;;;;;4.90;4.50;;;18.20;99.90;;;;;;4956138;28;20414;-65
2022/07/30 04:58:58;;;;;;;4.57;4.20;;;18.40;99.90;;;;;;4955831;28;20457;-65
2022/07/30 05:01:30;;;;;;;5.53;5.03;;;18.50;99.90;;;;;;4955637;28;20427;-66
2022/07/30 05:03:57;;;;;;;7.57;5.60;;;18.60;99.90;;;;;;4955405;29;20555;-65
2022/07/30 05:06:25;;;;;;;8.17;5.17;;;18.70;99.90;;;;;;4955795;29;20437;-66
2022/07/30 05:08:51;;;;;;;6.00;5.50;;;18.70;99.90;;;;;;4955747;29;20390;-66
2022/07/30 05:11:16;;;;;;;6.60;4.83;;;18.70;99.90;;;;;;4955790;29;20491;-65
2022/07/30 05:13:43;;;;;;;6.90;5.67;;;18.80;99.90;;;;;;4955285;29;20527;-64
2022/07/30 05:16:10;;;;;;;5.37;4.60;;;19.00;99.90;;;;;;4938059;29;20651;-66
2022/07/30 05:18:36;;;;;;;5.33;4.80;;;19.10;99.90;;;;;;4955629;29;20470;-65
2022/07/30 05:21:02;;;;;;;7.07;5.57;;;19.30;99.90;;;;;;4954933;28;20413;-64
2022/07/30 05:23:28;;;;;;;5.00;4.60;;;19.40;99.90;;;;;;4955244;29;20515;-63
2022/07/30 05:25:54;;;;;;;5.20;4.80;;;19.50;99.90;;;;;;4955575;29;20478;-64
2022/07/30 05:28:21;;;;;;;5.90;5.40;;;19.60;99.90;;;;;;4938382;29;20420;-66
2022/07/30 05:30:47;;;;;;;6.07;5.47;;;19.70;99.90;;;;;;4955130;29;20582;-65
2022/07/30 05:33:12;;;;;;;4.80;4.40;;;19.80;99.90;;;;;;4954630;29;20946;-65
2022/07/30 05:35:38;;;;;;;4.67;4.33;;;19.80;99.90;;;;;;4955337;29;20398;-67
2022/07/30 05:38:04;;;;;;;7.07;5.23;;;19.80;99.90;;;;;;4955252;28;20212;-66
2022/07/30 05:40:30;;;;;;;5.00;4.60;;;19.90;99.90;;;;;;4955189;29;20643;-65
2022/07/30 05:42:56;;;;;;;6.03;4.90;;;20.00;99.90;;;;;;4954949;29;20495;-65
2022/07/30 05:45:22;;;;;;;4.97;4.67;;;20.10;99.90;;;;;;4939639;29;20176;-65
2022/07/30 05:47:47;;;;;;;4.23;3.93;;;20.20;99.90;;;;;;4955353;29;20642;-66
2022/07/30 05:50:13;;;;;;;6.83;4.67;;;20.30;99.90;;;;;;4955274;29;20208;-65
2022/07/30 05:52:38;;;;;;;4.80;4.30;;;20.50;99.90;;;;;;4937462;29;20184;-65
2022/07/30 05:55:06;;;;;;;5.83;4.90;;;20.50;99.90;;;;;;4954885;29;20193;-65
2022/07/30 05:57:35;;;;;;;4.23;3.83;;;20.60;99.90;;;;;;4955009;29;20239;-65
2022/07/30 06:00:01;;;;;;;6.07;3.80;;;20.70;99.90;;;;;;4954699;29;20539;-65
2022/07/30 06:02:27;;;;;;;5.00;4.43;;;20.80;99.90;;;;;;4954548;29;20410;-65
2022/07/30 06:04:53;;;;;;;5.03;4.60;;;20.90;99.90;;;;;;4954685;29;20452;-65
2022/07/30 06:07:18;;;;;;;4.80;4.30;;;21.00;99.90;;;;;;4955249;29;20173;-65
2022/07/30 06:09:44;;;;;;;5.07;4.67;;;21.10;99.90;;;;;;4954685;29;20184;-65
2022/07/30 06:12:10;;;;;;;4.83;4.37;;;21.20;99.90;;;;;;4954787;29;20363;-65
2022/07/30 06:14:35;;;;;;;5.70;4.50;;;21.30;99.90;;;;;;4954803;29;20602;-65
2022/07/30 06:17:01;;;;;;;4.50;4.20;;;21.40;99.90;;;;;;4954918;29;20185;-65
2022/07/30 06:19:26;;;;;;;4.50;4.10;;;21.50;99.90;;;;;;4954496;29;20674;-65
2022/07/30 06:21:52;;;;;;;4.07;3.80;;;21.50;99.90;;;;;;4955152;29;20189;-65
2022/07/30 06:24:18;;;;;;;3.90;3.50;;;21.70;99.90;;;;;;4954708;29;20338;-65
2022/07/30 06:26:43;;;;;;;4.10;3.80;;;21.80;99.90;;;;;;4954763;29;20272;-65
2022/07/30 06:29:09;;;;;;;4.23;3.77;;;21.90;99.90;;;;;;4954845;29;20209;-65
2022/07/30 06:31:37;;;;;;;5.53;5.03;;;22.00;99.90;;;;;;4955537;28;20184;-67
2022/07/30 06:34:02;;;;;;;4.90;4.50;;;22.00;99.90;;;;;;4943066;29;20240;-67
2022/07/30 06:36:29;;;;;;;4.23;3.83;;;22.10;99.90;;;;;;4958848;29;20443;-67
2022/07/30 06:38:54;;;;;;;4.97;4.50;;;22.20;99.90;;;;;;4958329;28;20206;-66
2022/07/30 06:41:20;;;;;;;4.37;4.07;;;22.30;99.90;;;;;;4958639;29;20458;-66
2022/07/30 06:43:46;;;;;;;3.97;3.57;;;22.50;99.90;;;;;;4957871;29;20199;-66
2022/07/30 06:46:11;;;;;;;3.53;3.23;;;22.60;99.90;;;;;;4958368;29;20224;-66
2022/07/30 06:48:37;;;;;;;4.47;4.07;;;22.70;99.50;;;;;;4958329;29;20184;-65
2022/07/30 06:51:03;;;;;;;4.67;4.30;;;22.90;99.00;;;;;;4957705;28;20539;-66
2022/07/30 06:53:28;;;;;;;4.00;3.70;;;23.10;98.60;;;;;;4957716;29;20207;-65
2022/07/30 06:55:54;;;;;;;3.40;3.10;;;23.20;98.10;;;;;;4958197;28;20224;-66
2022/07/30 06:58:19;;;;;;;3.40;3.17;;;23.40;97.40;;;;;;4957388;28;20203;-66
2022/07/30 07:00:45;;;;;;;3.57;3.37;;;23.50;97.40;;;;;;4957116;28;20654;-63
2022/07/30 07:03:11;;;;;;;3.40;3.20;;;23.70;96.80;;;;;;4956712;29;20271;-65
2022/07/30 07:05:37;;;;;;;3.77;2.87;;;23.70;95.80;;;;;;4957930;29;20276;-65
2022/07/30 07:08:03;;;;;;;3.83;3.53;;;23.70;95.70;;;;;;4957886;29;20420;-66
2022/07/30 07:10:28;;;;;;;4.47;3.70;;;23.70;95.30;;;;;;4957964;29;20945;-68
2022/07/30 07:12:54;;;;;;;6.37;3.67;;;23.70;95.20;;;;;;4957604;29;20632;-64
2022/07/30 07:15:20;;;;;;;4.57;4.17;;;23.60;94.20;;;;;;4957556;29;20200;-64
2022/07/30 07:17:46;;;;;;;3.43;3.23;;;23.60;94.60;;;;;;4957967;29;20439;-64
2022/07/30 07:20:12;;;;;;;3.00;2.80;;;23.60;94.80;;;;;;4957746;29;20430;-66
2022/07/30 07:22:37;;;;;;;4.07;3.00;;;23.70;94.70;;;;;;4957526;29;20216;-67
2022/07/30 07:25:04;;;;;;;2.90;2.70;;;23.80;94.70;;;;;;4957633;29;20200;-69
2022/07/30 07:27:29;;;;;;;4.57;2.90;;;23.80;94.60;;;;;;4957481;29;20181;-72
2022/07/30 07:29:55;;;;;;;4.07;3.60;;;23.90;94.00;;;;;;4957325;29;20410;-73
2022/07/30 07:32:21;;;;;;;3.80;3.00;;;24.00;94.00;;;;;;4939954;29;20250;-68
2022/07/30 07:34:46;;;;;;;3.77;3.47;;;24.10;93.30;;;;;;4956700;29;20272;-65
2022/07/30 07:37:14;;;;;;;3.30;3.10;;;24.10;93.30;;;;;;4957493;29;20215;-66
2022/07/30 07:39:39;;;;;;;3.60;3.30;;;24.20;93.70;;;;;;4957062;29;20231;-69
2022/07/30 07:42:05;;;;;;;3.90;3.30;;;24.50;93.80;;;;;;4958371;28;20428;-67
2022/07/30 07:44:31;;;;;;;4.53;4.13;;;24.80;92.50;;;;;;4955818;28;20201;-66
2022/07/30 07:46:56;;;;;;;3.43;3.23;;;25.10;92.40;;;;;;4957433;29;20190;-67
2022/07/30 07:49:22;;;;;;;3.20;3.00;;;25.60;92.40;;;;;;4956811;29;20654;-68
2022/07/30 07:51:47;;;;;;;5.43;4.93;;;26.20;91.20;;;;;;4957123;29;20550;-66
2022/07/30 07:54:13;;;;;;;3.63;3.33;;;27.10;90.30;;;;;;4959019;28;20200;-67
2022/07/30 07:56:38;;;;;;;3.80;3.47;;;28.20;85.80;;;;;;4968815;28;20181;-66
2022/07/30 07:59:04;;;;;;;4.10;3.80;;;29.30;81.30;;;;;;4939049;29;20205;-72
2022/07/30 08:01:30;;;;;;;4.10;3.80;;;30.50;77.90;;;;;;4956788;29;20662;-70
2022/07/30 08:03:55;;;;;;;3.57;3.37;;;31.20;72.50;;;;;;4955789;29;20205;-68
2022/07/30 08:06:21;;;;;;;3.70;3.40;;;32.00;71.60;;;;;;4956859;29;20547;-69
2022/07/30 08:08:46;;;;;;;4.43;4.10;;;32.90;66.70;;;;;;4956295;29;20267;-65
2022/07/30 08:11:12;;;;;;;3.40;3.20;;;33.40;64.10;;;;;;4955581;29;20177;-67
2022/07/30 08:13:38;;;;;;;4.47;4.07;;;33.70;64.30;;;;;;4955866;29;20652;-68
2022/07/30 08:16:04;;;;;;;3.67;3.47;;;34.30;60.10;;;;;;4956021;29;20173;-69
2022/07/30 08:18:29;;;;;;;4.47;4.17;;;34.90;58.50;;;;;;4956407;28;20559;-69
2022/07/30 08:20:55;;;;;;;3.60;3.40;;;35.30;57.70;;;;;;4955195;29;20440;-67
2022/07/30 08:23:21;;;;;;;4.40;4.10;;;35.70;56.70;;;;;;4954549;29;20251;-67
2022/07/30 08:25:47;;;;;;;3.40;3.20;;;36.00;56.80;;;;;;4956456;28;20239;-67
2022/07/30 08:28:13;;;;;;;3.60;3.40;;;35.90;55.30;;;;;;4954817;28;20264;-66
2022/07/30 08:30:39;;;;;;;4.07;3.67;;;35.80;55.10;;;;;;4954156;29;21054;-65
2022/07/30 08:33:05;;;;;;;3.70;3.40;;;35.90;54.80;;;;;;4954106;29;20181;-66
2022/07/30 08:35:30;;;;;;;3.70;3.50;;;35.90;55.60;;;;;;4955125;29;20181;-68
2022/07/30 08:37:56;;;;;;;3.70;3.50;;;36.20;53.80;;;;;;4954089;29;20928;-66
2022/07/30 08:40:24;;;;;;;4.20;3.90;;;36.30;53.70;;;;;;4954837;28;20516;-68
2022/07/30 08:42:51;;;;;;;3.80;3.60;;;36.30;53.00;;;;;;4954690;29;20192;-67
2022/07/30 08:45:17;;;;;;;3.50;3.30;;;36.30;53.00;;;;;;4956186;29;20446;-66
2022/07/30 08:47:45;;;;;;;3.73;3.50;;;36.30;52.60;;;;;;4955949;29;20448;-67
2022/07/30 08:50:13;;;;;;;3.10;2.90;;;36.50;51.50;;;;;;4955905;29;20216;-65
2022/07/30 08:52:39;;;;;;;3.43;3.23;;;36.60;51.70;;;;;;4955181;29;20421;-65
2022/07/30 08:55:05;;;;;;;3.27;3.07;;;35.80;52.00;;;;;;4954797;28;20528;-65
2022/07/30 08:57:33;;;;;;;3.60;3.30;;;35.70;52.50;;;;;;4956066;29;20471;-65
2022/07/30 08:59:59;;;;;;;3.80;2.93;;;35.90;52.90;;;;;;4955317;29;20488;-64
2022/07/30 09:02:25;;;;;;;3.17;2.97;;;36.10;51.80;;;;;;4955816;29;20416;-65
2022/07/30 09:04:51;;;;;;;3.83;3.63;;;35.90;51.20;;;;;;4955610;29;20453;-64
2022/07/30 09:07:16;;;;;;;3.00;2.80;;;35.90;51.40;;;;;;4955694;28;21019;-65
2022/07/30 09:09:42;;;;;;;3.27;3.07;;;35.90;50.80;;;;;;4955502;29;20291;-64
2022/07/30 09:12:37;;;;;;;3.93;3.73;;;35.80;50.80;;;;;;4955947;29;20181;-65
2022/07/30 09:15:12;;;;;;;5.33;3.70;;;36.20;50.80;;;;;;4955461;29;20213;-65
2022/07/30 09:17:56;;;;;;;3.47;3.17;;;36.50;50.70;;;;;;4955516;29;20416;-65
2022/07/30 09:20:25;;;;;;;3.27;3.13;;;37.10;49.80;;;;;;4954867;29;20972;-63
2022/07/30 09:22:54;;;;;;;3.80;3.50;;;37.80;48.60;;;;;;4956651;29;20507;-63
2022/07/30 09:25:40;;;;;;;3.43;3.13;;;37.50;47.60;;;;;;4955083;29;20444;-63
2022/07/30 09:28:08;;;;;;;3.70;3.50;;;37.10;48.80;;;;;;4955735;29;20408;-63
2022/07/30 09:30:45;;;;;;;3.67;3.47;;;36.80;48.40;;;;;;4955408;28;20441;-63
2022/07/30 09:33:11;;;;;;;4.20;4.00;;;35.60;49.30;;;;;;4955084;29;20424;-64
2022/07/30 09:35:38;;;;;;;4.00;3.80;;;35.60;50.60;;;;;;4954695;29;20420;-64
2022/07/30 09:38:05;;;;;;;2.80;2.60;;;36.00;50.20;;;;;;4955025;29;20939;-63
2022/07/30 09:40:30;;;;;;;3.20;2.90;;;35.80;49.60;;;;;;4955277;28;20515;-63
2022/07/30 09:43:05;;;;;;;3.23;3.03;;;35.30;50.10;;;;;;4955215;29;20471;-64
2022/07/30 09:45:31;;;;;;;3.60;3.30;;;35.60;50.10;;;;;;4955324;29;20194;-63
2022/07/30 09:47:57;;;;;;;3.70;3.50;;;36.10;49.40;;;;;;4955560;29;20433;-64
2022/07/30 09:50:23;;;;;;;3.80;3.50;;;36.10;49.00;;;;;;4954916;28;20428;-64
2022/07/30 09:52:50;;;;;;;3.37;3.17;;;36.10;49.30;;;;;;4955136;29;20207;-64
2022/07/30 09:55:34;;;;;;;3.47;3.27;;;36.30;48.60;;;;;;4954979;29;20449;-63
2022/07/30 09:58:05;;;;;;;3.30;3.10;;;36.70;48.90;;;;;;4955426;28;20475;-64
2022/07/30 10:00:33;;;;;;;3.50;3.30;;;37.40;47.60;;;;;;4955180;29;20444;-64
2022/07/30 10:02:59;;;;;;;3.30;3.10;;;38.00;46.90;;;;;;4954598;29;20428;-64
2022/07/30 10:05:25;;;;;;;3.50;3.27;;;38.30;47.20;;;;;;4954993;29;20499;-64
2022/07/30 10:07:56;;;;;;;3.40;3.20;;;38.40;46.00;;;;;;4957968;28;20471;-64
2022/07/30 10:10:27;;;;;;;3.77;3.57;;;37.70;46.00;;;;;;4959136;29;20417;-63
2022/07/30 10:12:59;;;;;;;3.23;2.93;;;36.40;47.10;;;;;;4958881;29;20527;-63
2022/07/30 10:15:29;;;;;;;4.30;3.83;;;34.90;48.90;;;;;;4959185;29;20398;-64
2022/07/30 10:17:55;;;;;;;3.00;2.87;;;34.70;49.40;;;;;;4941919;29;20491;-63
2022/07/30 10:20:21;;;;;;;3.10;2.90;;;34.40;48.40;;;;;;4958676;29;20450;-63
2022/07/30 10:22:48;;;;;;;3.17;3.03;;;34.00;48.90;;;;;;4958242;29;20523;-64
2022/07/30 10:25:20;;;;;;;2.73;2.63;;;34.50;49.00;;;;;;4958929;28;20455;-63
2022/07/30 10:27:47;;;;;;;2.80;2.60;;;35.10;47.70;;;;;;4958729;29;20475;-64
2022/07/30 10:30:13;;;;;;;2.67;2.57;;;35.70;47.40;;;;;;4941410;29;21044;-63
2022/07/30 10:32:39;;;;;;;2.87;2.77;;;36.10;47.10;;;;;;4958357;28;20504;-64
2022/07/30 10:35:07;;;;;;;3.00;2.90;;;36.00;47.00;;;;;;4958000;28;20208;-63
2022/07/30 10:37:35;;;;;;;2.40;2.30;;;36.10;47.00;;;;;;4958121;29;20467;-65
2022/07/30 10:40:28;;;;;;;3.13;2.83;;;36.30;46.50;;;;;;4958487;29;20412;-64
2022/07/30 10:43:11;;;;;;;3.00;2.90;;;37.00;46.10;;;;;;4958160;29;20443;-64
2022/07/30 10:46:09;;;;;;;3.00;2.87;;;37.30;45.50;;;;;;4941069;29;20427;-64
2022/07/30 10:48:35;;;;;;;2.90;2.80;;;37.30;45.60;;;;;;4935872;29;20977;-64
2022/07/30 10:51:01;;;;;;;4.60;3.30;;;37.10;45.40;;;;;;4958826;29;20428;-64
2022/07/30 10:53:47;;;;;;;3.00;2.90;;;36.40;46.80;;;;;;4957674;29;20201;-64
2022/07/30 10:56:18;;;;;;;3.20;3.00;;;35.90;47.50;;;;;;4958260;29;20643;-64
2022/07/30 10:58:59;;;;;;;3.63;3.00;;;35.50;46.60;;;;;;4958149;29;20809;-64
2022/07/30 11:01:25;;;;;;;2.93;2.83;;;35.50;47.10;;;;;;4958267;29;20432;-64
2022/07/30 11:04:25;;;;;;;2.93;2.73;;;35.50;46.90;;;;;;4957161;29;20451;-64
2022/07/30 11:06:52;;;;;;;3.10;2.77;;;35.60;47.30;;;;;;4958503;29;20760;-64
2022/07/30 11:09:40;;;;;;;2.77;2.67;;;35.50;47.10;;;;;;4957587;29;20460;-63
2022/07/30 11:12:06;;;;;;;3.23;2.93;;;35.20;47.70;;;;;;4958377;29;20407;-64
2022/07/30 11:14:44;;;;;;;2.80;2.70;;;35.00;47.20;;;;;;4957488;29;20444;-64
2022/07/30 11:17:10;;;;;;;2.60;2.50;;;34.70;48.20;;;;;;4958119;29;20455;-63
2022/07/30 11:20:06;;;;;;;2.93;2.73;;;34.30;48.70;;;;;;4956297;28;20452;-63
2022/07/30 11:22:40;;;;;;;3.37;3.17;;;33.60;48.80;;;;;;4956992;29;20395;-63
2022/07/30 11:25:29;;;;;;;3.10;2.90;;;33.00;49.60;;;;;;4957793;29;20795;-63
2022/07/30 11:27:56;;;;;;;2.97;2.77;;;32.40;50.30;;;;;;4940226;29;20432;-63
2022/07/30 11:30:21;;;;;;;2.73;2.53;;;32.10;51.20;;;;;;4957773;29;20597;-63
2022/07/30 11:32:52;;;;;;;6.43;3.00;;;31.90;50.90;;;;;;4956943;29;20499;-63
2022/07/30 11:35:21;;;;;;;3.10;2.90;;;31.40;51.10;;;;;;4940370;29;20200;-63
2022/07/30 11:38:07;;;;;;;2.97;2.77;;;31.10;51.40;;;;;;4957276;29;20859;-63
2022/07/30 11:40:34;;;;;;;2.60;2.50;;;30.70;52.40;;;;;;4958076;29;20387;-63
2022/07/30 11:43:17;;;;;;;2.47;2.27;;;30.40;53.30;;;;;;4956833;29;20411;-63
2022/07/30 11:45:47;;;;;;;2.93;2.73;;;30.40;52.90;;;;;;4957592;29;20426;-63
2022/07/30 11:48:15;;;;;;;3.87;2.90;;;30.50;52.60;;;;;;4957342;29;20466;-63
2022/07/30 11:50:42;;;;;;;2.90;2.70;;;30.50;52.70;;;;;;4957185;29;20494;-64
2022/07/30 11:53:13;;;;;;;5.00;2.60;;;30.50;53.30;;;;;;4956488;29;20517;-62
2022/07/30 11:55:41;;;;;;;2.30;2.20;;;30.30;52.80;;;;;;4957315;29;20383;-63
2022/07/30 11:58:10;;;;;;;2.53;2.43;;;30.30;52.60;;;;;;4957134;29;20761;-62
2022/07/30 12:00:41;;;;;;;2.33;2.23;;;30.20;52.40;;;;;;4957497;29;20778;-62
2022/07/30 12:03:11;;;;;;;2.30;2.20;;;30.10;51.60;;;;;;4956233;29;20407;-62
2022/07/30 12:05:37;;;;;;;2.60;2.40;;;30.00;51.60;;;;;;4957034;29;20519;-62
2022/07/30 12:08:04;;;;;;;1.87;1.77;;;29.90;51.10;;;;;;4956700;29;20479;-63
2022/07/30 12:10:30;;;;;;;2.23;2.13;;;29.90;51.20;;;;;;4957160;29;20478;-63
2022/07/30 12:13:28;;;;;;;3.10;2.90;;;29.80;52.30;;;;;;4956080;29;20445;-63
2022/07/30 12:15:53;;;;;;;2.50;2.30;;;29.60;52.70;;;;;;4934277;29;20395;-62
2022/07/30 12:18:29;;;;;;;2.70;2.60;;;29.50;52.80;;;;;;4956717;29;20382;-62
2022/07/30 12:21:01;;;;;;;2.70;2.50;;;29.50;52.90;;;;;;4956653;29;20188;-62
2022/07/30 12:23:28;;;;;;;2.23;2.03;;;29.60;52.90;;;;;;4956351;29;20410;-62
2022/07/30 12:25:54;;;;;;;2.23;2.13;;;29.60;52.90;;;;;;4956452;29;20398;-63
2022/07/30 12:28:24;;;;;;;2.57;2.43;;;29.70;53.50;;;;;;4956604;29;20382;-63
2022/07/30 12:30:51;;;;;;;2.30;2.20;;;29.70;52.60;;;;;;4955950;28;20429;-63
2022/07/30 12:33:19;;;;;;;2.13;1.93;;;29.70;53.20;;;;;;4956152;29;20406;-63
2022/07/30 12:35:50;;;;;;;2.60;2.40;;;29.80;53.00;;;;;;4956072;29;20511;-62
2022/07/30 12:38:17;;;;;;;2.10;2.00;;;29.70;53.00;;;;;;4956593;29;20411;-62
2022/07/30 12:40:54;;;;;;;3.00;2.80;;;29.50;53.70;;;;;;4956250;28;20495;-63
2022/07/30 12:43:45;;;;;;;2.73;2.53;;;29.50;52.90;;;;;;4955944;28;20411;-63
2022/07/30 12:46:13;;;;;;;2.70;2.50;;;29.30;53.40;;;;;;4955853;29;20446;-63
2022/07/30 12:49:06;;;;;;;2.23;2.13;;;29.20;53.60;;;;;;4956163;28;21022;-63
2022/07/30 12:51:35;;;;;;;2.30;2.20;;;29.10;54.50;;;;;;4955897;29;20403;-63
2022/07/30 12:54:14;;;;;;;2.40;2.30;;;29.00;53.90;;;;;;4955639;29;20925;-63
2022/07/30 12:56:40;;;;;;;2.83;2.63;;;29.00;54.20;;;;;;4955885;29;20408;-62
2022/07/30 12:59:20;;;;;;;1.97;1.87;;;29.00;55.00;;;;;;4956077;29;20965;-63
2022/07/30 13:01:46;;;;;;;2.40;2.30;;;29.20;54.20;;;;;;4956088;29;20603;-62
2022/07/30 13:04:13;;;;;;;2.63;2.43;;;29.20;53.80;;;;;;4955440;29;20558;-63
2022/07/30 13:06:42;;;;;;;2.60;2.40;;;29.10;54.00;;;;;;4955666;29;20192;-63
2022/07/30 13:09:19;;;;;;;2.30;2.20;;;29.00;53.50;;;;;;4955552;29;20443;-62
2022/07/30 13:11:45;;;;;;;2.20;2.10;;;28.90;54.30;;;;;;4955923;29;20428;-63
2022/07/30 13:14:12;;;;;;;2.30;2.20;;;29.00;54.50;;;;;;4955278;29;20419;-63
2022/07/30 13:16:39;;;;;;;2.37;2.27;;;29.20;54.10;;;;;;4955982;29;20429;-64
2022/07/30 13:19:05;;;;;;;2.27;2.10;;;29.10;53.60;;;;;;4955271;28;20408;-62
2022/07/30 13:21:32;;;;;;;3.10;2.80;;;29.00;53.90;;;;;;4955616;28;20486;-63
2022/07/30 13:23:59;;;;;;;2.80;2.60;;;29.10;54.40;;;;;;4954901;28;20415;-63
2022/07/30 13:26:25;;;;;;;2.50;2.30;;;29.20;53.90;;;;;;4955669;29;20471;-63
2022/07/30 13:28:51;;;;;;;2.60;2.50;;;29.30;54.90;;;;;;4955580;29;20494;-62
2022/07/30 13:31:17;;;;;;;2.30;2.20;;;29.40;54.60;;;;;;4955724;28;20411;-63
2022/07/30 13:33:43;;;;;;;2.33;2.23;;;29.40;54.10;;;;;;4954355;29;20436;-62
2022/07/30 13:36:08;;;;;;;3.03;2.63;;;29.40;53.50;;;;;;4954888;29;20429;-63
2022/07/30 13:38:34;;;;;;;3.30;2.50;;;29.20;54.00;;;;;;4955380;29;20795;-63
2022/07/30 13:41:00;;;;;;;2.43;2.33;;;29.00;54.30;;;;;;4954088;28;20275;-62
2022/07/30 13:43:26;;;;;;;3.27;2.43;;;28.90;54.30;;;;;;4955041;29;20214;-62
2022/07/30 13:45:52;;;;;;;2.40;2.30;;;28.80;54.50;;;;;;4955487;28;20419;-62
2022/07/30 13:48:18;;;;;;;2.53;2.43;;;28.80;54.20;;;;;;4955535;28;20555;-63
2022/07/30 13:50:45;;;;;;;2.20;2.10;;;28.80;54.20;;;;;;4954786;29;20409;-62
2022/07/30 13:53:10;;;;;;;1.97;1.87;;;28.80;54.30;;;;;;4955113;29;20443;-62
2022/07/30 13:55:38;;;;;;;2.43;2.33;;;28.80;54.70;;;;;;4955448;29;20897;-62
2022/07/30 13:58:05;;;;;;;2.47;2.27;;;29.00;54.60;;;;;;4955022;29;20559;-64
2022/07/30 14:00:32;;;;;;;2.60;2.50;;;29.30;54.40;;;;;;4955298;29;20420;-63
2022/07/30 14:03:03;;;;;;;2.77;2.57;;;29.40;54.20;;;;;;4954775;29;20387;-62
2022/07/30 14:05:29;;;;;;;2.70;2.60;;;29.50;54.40;;;;;;4954720;29;20487;-62
2022/07/30 14:07:56;;;;;;;2.40;2.30;;;29.40;53.10;;;;;;4955114;29;20914;-64
2022/07/30 14:10:22;;;;;;;2.10;2.00;;;29.40;54.30;;;;;;4955006;28;20445;-62
2022/07/30 14:12:53;;;;;;;2.30;2.20;;;29.30;54.40;;;;;;4954694;29;20478;-63
2022/07/30 14:15:20;;;;;;;2.67;2.57;;;29.30;54.50;;;;;;4955224;29;20432;-63
2022/07/30 14:17:46;;;;;;;3.10;2.33;;;29.30;54.20;;;;;;4955210;29;20398;-63
2022/07/30 14:20:12;;;;;;;2.27;2.17;;;29.30;54.40;;;;;;4954973;29;20410;-63
2022/07/30 14:22:37;;;;;;;1.93;1.83;;;29.30;54.20;;;;;;4954506;29;20188;-63
2022/07/30 14:25:03;;;;;;;2.70;2.50;;;29.20;54.30;;;;;;4955068;29;20579;-63
2022/07/30 14:27:29;;;;;;;2.77;2.57;;;29.20;54.00;;;;;;4955517;29;20184;-63
2022/07/30 14:29:54;;;;;;;2.50;2.30;;;29.10;53.70;;;;;;4954728;29;20563;-63
2022/07/30 14:32:20;;;;;;;2.03;1.93;;;28.80;54.40;;;;;;4954637;29;20177;-63
2022/07/30 14:34:46;;;;;;;5.73;2.70;;;28.70;54.70;;;;;;4954456;29;20212;-63
2022/07/30 14:37:11;;;;;;;2.80;2.60;;;28.70;54.60;;;;;;4954464;29;20191;-63
2022/07/30 14:39:37;;;;;;;4.23;3.40;;;28.60;54.90;;;;;;4954888;29;20191;-63
2022/07/30 14:42:05;;;;;;;2.37;2.27;;;28.50;55.00;;;;;;4937594;29;20269;-63
2022/07/30 14:44:31;;;;;;;2.37;2.17;;;28.50;55.10;;;;;;4954337;28;20583;-63
2022/07/30 14:46:56;;;;;;;2.20;2.10;;;28.50;55.10;;;;;;4954541;29;20412;-63
2022/07/30 14:49:22;;;;;;;2.30;2.20;;;28.50;55.50;;;;;;4954473;29;20471;-63
2022/07/30 14:51:47;;;;;;;2.10;2.00;;;28.60;54.70;;;;;;4954960;29;20635;-63
2022/07/30 14:54:13;;;;;;;2.07;1.97;;;28.70;55.30;;;;;;4957821;28;20200;-63
2022/07/30 14:56:39;;;;;;;2.20;2.10;;;28.80;54.80;;;;;;4958283;29;20619;-63
2022/07/30 14:59:04;;;;;;;2.10;2.00;;;29.00;54.50;;;;;;4958457;29;20267;-63
2022/07/30 15:01:30;;;;;;;2.10;2.00;;;29.00;54.80;;;;;;4958417;29;20185;-62
2022/07/30 15:03:56;;;;;;;2.43;2.33;;;29.10;54.60;;;;;;4957359;29;20700;-63
2022/07/30 15:06:22;;;;;;;2.37;2.27;;;29.10;54.30;;;;;;4958043;28;20200;-63
2022/07/30 15:08:47;;;;;;;2.00;1.90;;;29.20;54.30;;;;;;4958010;29;20208;-63
2022/07/30 15:11:13;;;;;;;2.23;2.10;;;29.20;54.80;;;;;;4958267;28;20191;-62
2022/07/30 15:13:39;;;;;;;2.23;2.13;;;29.20;53.90;;;;;;4957477;29;20192;-63
2022/07/30 15:16:05;;;;;;;2.10;2.00;;;29.10;54.00;;;;;;4958078;28;20177;-63
2022/07/30 15:18:31;;;;;;;1.83;1.70;;;28.90;54.70;;;;;;4957685;28;20189;-63
2022/07/30 15:20:57;;;;;;;1.93;1.83;;;28.80;54.80;;;;;;4958071;29;20749;-63
2022/07/30 15:23:23;;;;;;;3.30;2.27;;;28.80;54.60;;;;;;4957630;29;20403;-62
2022/07/30 15:25:49;;;;;;;2.40;2.20;;;29.00;55.20;;;;;;4957832;29;20391;-63
2022/07/30 15:28:14;;;;;;;1.90;1.80;;;29.20;54.80;;;;;;4957604;29;20289;-63
2022/07/30 15:30:40;;;;;;;2.10;2.00;;;29.40;54.10;;;;;;4940224;29;20181;-63
2022/07/30 15:33:06;;;;;;;2.13;2.03;;;29.50;53.80;;;;;;4957028;29;20181;-63
2022/07/30 15:35:32;;;;;;;2.30;2.20;;;29.60;53.00;;;;;;4957563;29;20177;-63
2022/07/30 15:37:58;;;;;;;1.87;1.77;;;29.60;53.00;;;;;;4957613;29;20391;-62
2022/07/30 15:40:24;;;;;;;1.77;1.67;;;29.60;53.40;;;;;;4957725;29;20489;-62
2022/07/30 15:42:49;;;;;;;1.80;1.70;;;29.60;52.60;;;;;;4957300;29;20192;-63
2022/07/30 15:45:15;;;;;;;1.80;1.70;;;29.50;52.80;;;;;;4957518;29;20529;-63
2022/07/30 15:47:41;;;;;;;2.03;1.93;;;29.30;53.40;;;;;;4957199;29;20183;-62
2022/07/30 15:50:07;;;;;;;1.90;1.80;;;29.10;53.60;;;;;;4957117;29;20936;-64
2022/07/30 15:52:35;;;;;;;2.20;2.10;;;29.00;53.70;;;;;;4957282;29;20261;-62
2022/07/30 15:55:04;;;;;;;2.23;2.13;;;28.90;54.10;;;;;;4957312;29;20413;-63
2022/07/30 15:57:30;;;;;;;1.83;1.83;;;28.80;54.90;;;;;;4957366;29;20434;-62
2022/07/30 15:59:57;;;;;;;2.10;2.00;;;28.70;54.10;;;;;;4957339;29;20497;-63
2022/07/30 16:02:22;;;;;;;2.00;1.90;;;28.70;54.30;;;;;;4957321;29;20529;-62
2022/07/30 16:04:48;;;;;;;4.23;2.20;;;28.60;54.20;;;;;;4956519;28;20935;-63
2022/07/30 16:07:14;;;;;;;2.07;1.97;;;28.50;54.60;;;;;;4957264;29;20189;-62
2022/07/30 16:09:39;;;;;;;2.30;2.10;;;28.40;54.70;;;;;;4956991;29;20284;-62
2022/07/30 16:12:06;;;;;;;3.57;2.10;;;28.20;54.80;;;;;;4957146;29;20180;-62
2022/07/30 16:14:32;;;;;;;2.50;2.40;;;28.20;55.40;;;;;;4956482;29;20204;-63
2022/07/30 16:16:58;;;;;;;2.47;2.37;;;28.10;55.20;;;;;;4956895;29;20767;-62
2022/07/30 16:19:24;;;;;;;2.20;2.10;;;28.00;55.20;;;;;;4957054;29;20471;-63
2022/07/30 16:21:49;;;;;;;2.47;2.37;;;27.90;55.50;;;;;;4956748;29;20465;-63
2022/07/30 16:24:15;;;;;;;2.37;2.27;;;27.80;55.90;;;;;;4956386;29;20206;-62
2022/07/30 16:26:41;;;;;;;2.10;2.00;;;27.80;56.20;;;;;;4956870;29;20206;-63
2022/07/30 16:29:08;;;;;;;3.33;2.00;;;27.80;56.10;;;;;;4957200;29;20202;-63
2022/07/30 16:31:35;;;;;;;2.00;1.90;;;27.80;56.20;;;;;;4956375;29;20194;-62
2022/07/30 16:34:01;;;;;;;1.80;1.70;;;27.80;56.10;;;;;;4956097;29;20770;-62
2022/07/30 16:36:26;;;;;;;2.10;2.00;;;27.80;55.70;;;;;;4956767;29;20410;-62
2022/07/30 16:38:52;;;;;;;2.30;2.20;;;27.70;55.80;;;;;;4956663;29;20213;-63
2022/07/30 16:41:18;;;;;;;2.30;2.20;;;27.60;56.20;;;;;;4956590;29;20660;-63
2022/07/30 16:43:43;;;;;;;2.00;1.90;;;27.60;56.10;;;;;;4955949;28;20224;-63
2022/07/30 16:46:09;;;;;;;2.30;2.10;;;27.60;56.20;;;;;;4956696;29;20217;-63
2022/07/30 16:48:35;;;;;;;2.20;2.07;;;27.60;56.20;;;;;;4956233;29;20248;-63
2022/07/30 16:51:02;;;;;;;2.10;2.00;;;27.70;57.00;;;;;;4956695;29;20463;-63
2022/07/30 16:53:28;;;;;;;2.30;2.20;;;27.70;56.70;;;;;;4955647;29;20588;-63
2022/07/30 16:55:55;;;;;;;2.50;2.40;;;27.70;56.40;;;;;;4956391;29;20823;-63
2022/07/30 16:58:21;;;;;;;2.57;2.20;;;27.60;56.60;;;;;;4956216;29;20421;-63